KSSI/SSI METAR and TAF weather

Enter ICAO airport designator
Station Type Date Time Source
KSSI METAR 2019/12/07 16:53 UTC NOAA

KSSI 071653Z AUTO 07010KT 10SM BKN080 19/12 A3021 RMK AO2 SLP230 T01890122


Station Type Date Time Source
KSSI Decoded METAR 2019/12/07 16:53 UTC NOAA

BRUNSWICK MC KINNON AIRPORT , GA, United States (KSSI) 31-09N 081-23W 6M
Dec 07, 2019 - 11:53 AM EST / 2019.12.07 1653 UTC
Wind: from the ENE (070 degrees) at 12 MPH (10 KT):0
Visibility: 10 mile(s):0
Sky conditions: mostly cloudy
Temperature: 66.0 F (18.9 C)
Dew Point: 54.0 F (12.2 C)
Relative Humidity: 65%
Pressure (altimeter): 30.21 in. Hg (1023 hPa)
ob: KSSI 071653Z AUTO 07010KT 10SM BKN080 19/12 A3021 RMK AO2 SLP230 T01890122
cycle: 17

Station Type Date Time Source
KSSI TAF 2019/12/07 18:24 UTC NOAA

TAF KSSI 071723Z 0718/0818 06011KT P6SM SCT080 SCT250
FM080200 04009KT P6SM BKN040 BKN120
FM080900 03009KT P6SM SCT015 BKN025
FM081400 05012KT P6SM OVC015

Example: see airport list